sensor_id;sensor_type;location;lat;lon;timestamp;P1;durP1;ratioP1;P2;durP2;ratioP2
49458;SDS011;35354;51.296;16.924;2023-06-01T00:00:50;8.15;;;4.88;;
49458;SDS011;35354;51.296;16.924;2023-06-01T00:03:15;9.15;;;5.63;;
49458;SDS011;35354;51.296;16.924;2023-06-01T00:05:40;7.28;;;5.40;;
49458;SDS011;35354;51.296;16.924;2023-06-01T00:08:06;9.95;;;5.43;;
49458;SDS011;35354;51.296;16.924;2023-06-01T00:10:32;7.78;;;4.82;;
49458;SDS011;35354;51.296;16.924;2023-06-01T00:12:57;8.25;;;5.00;;
49458;SDS011;35354;51.296;16.924;2023-06-01T00:15:23;7.32;;;5.40;;
49458;SDS011;35354;51.296;16.924;2023-06-01T00:17:48;8.07;;;5.47;;
49458;SDS011;35354;51.296;16.924;2023-06-01T00:20:16;7.30;;;5.18;;
49458;SDS011;35354;51.296;16.924;2023-06-01T00:22:42;8.00;;;5.30;;
49458;SDS011;35354;51.296;16.924;2023-06-01T00:25:08;7.53;;;5.25;;
49458;SDS011;35354;51.296;16.924;2023-06-01T00:27:33;8.27;;;5.40;;
49458;SDS011;35354;51.296;16.924;2023-06-01T00:29:58;8.13;;;5.05;;
49458;SDS011;35354;51.296;16.924;2023-06-01T00:32:24;6.10;;;4.60;;
49458;SDS011;35354;51.296;16.924;2023-06-01T00:34:49;7.50;;;6.03;;
49458;SDS011;35354;51.296;16.924;2023-06-01T00:37:15;7.63;;;5.22;;
49458;SDS011;35354;51.296;16.924;2023-06-01T00:39:40;13.07;;;6.57;;
49458;SDS011;35354;51.296;16.924;2023-06-01T00:42:05;9.38;;;5.53;;
49458;SDS011;35354;51.296;16.924;2023-06-01T00:44:31;9.32;;;6.50;;
49458;SDS011;35354;51.296;16.924;2023-06-01T00:46:56;6.88;;;5.22;;
49458;SDS011;35354;51.296;16.924;2023-06-01T00:49:24;9.35;;;6.32;;
49458;SDS011;35354;51.296;16.924;2023-06-01T00:51:50;9.10;;;5.65;;
49458;SDS011;35354;51.296;16.924;2023-06-01T00:54:15;6.78;;;5.63;;
49458;SDS011;35354;51.296;16.924;2023-06-01T00:56:40;7.50;;;5.75;;
49458;SDS011;35354;51.296;16.924;2023-06-01T00:59:06;10.27;;;6.45;;
49458;SDS011;35354;51.296;16.924;2023-06-01T01:01:31;8.73;;;6.00;;
49458;SDS011;35354;51.296;16.924;2023-06-01T01:03:58;10.18;;;6.07;;
49458;SDS011;35354;51.296;16.924;2023-06-01T01:09:08;10.82;;;5.82;;
49458;SDS011;35354;51.296;16.924;2023-06-01T01:11:38;8.82;;;6.30;;
49458;SDS011;35354;51.296;16.924;2023-06-01T01:14:14;9.93;;;6.35;;
49458;SDS011;35354;51.296;16.924;2023-06-01T01:16:45;7.97;;;5.82;;
49458;SDS011;35354;51.296;16.924;2023-06-01T01:22:02;9.45;;;6.18;;
49458;SDS011;35354;51.296;16.924;2023-06-01T01:30:18;13.65;;;6.07;;
49458;SDS011;35354;51.296;16.924;2023-06-01T01:32:51;10.50;;;6.40;;
49458;SDS011;35354;51.296;16.924;2023-06-01T01:35:19;10.07;;;6.00;;
49458;SDS011;35354;51.296;16.924;2023-06-01T01:37:52;7.30;;;5.53;;
49458;SDS011;35354;51.296;16.924;2023-06-01T01:40:18;13.48;;;6.63;;
49458;SDS011;35354;51.296;16.924;2023-06-01T01:42:43;11.20;;;7.03;;
49458;SDS011;35354;51.296;16.924;2023-06-01T01:45:09;11.02;;;6.88;;
49458;SDS011;35354;51.296;16.924;2023-06-01T01:50:21;9.05;;;6.70;;
49458;SDS011;35354;51.296;16.924;2023-06-01T01:52:51;11.38;;;7.05;;
49458;SDS011;35354;51.296;16.924;2023-06-01T01:55:18;8.98;;;6.28;;
49458;SDS011;35354;51.296;16.924;2023-06-01T01:57:48;10.45;;;6.65;;
49458;SDS011;35354;51.296;16.924;2023-06-01T02:00:16;10.32;;;6.47;;
49458;SDS011;35354;51.296;16.924;2023-06-01T02:02:44;9.65;;;6.22;;
49458;SDS011;35354;51.296;16.924;2023-06-01T02:05:10;12.30;;;7.03;;
49458;SDS011;35354;51.296;16.924;2023-06-01T02:07:36;9.35;;;7.03;;
49458;SDS011;35354;51.296;16.924;2023-06-01T02:10:01;9.32;;;6.93;;
49458;SDS011;35354;51.296;16.924;2023-06-01T02:12:26;11.23;;;6.28;;
49458;SDS011;35354;51.296;16.924;2023-06-01T02:14:52;8.00;;;6.65;;
49458;SDS011;35354;51.296;16.924;2023-06-01T02:17:17;10.38;;;5.97;;
49458;SDS011;35354;51.296;16.924;2023-06-01T02:19:43;11.90;;;6.80;;
49458;SDS011;35354;51.296;16.924;2023-06-01T02:22:09;9.65;;;6.70;;
49458;SDS011;35354;51.296;16.924;2023-06-01T02:24:34;13.43;;;7.00;;
49458;SDS011;35354;51.296;16.924;2023-06-01T02:27:00;10.40;;;6.25;;
49458;SDS011;35354;51.296;16.924;2023-06-01T02:29:25;11.55;;;7.05;;
49458;SDS011;35354;51.296;16.924;2023-06-01T02:31:51;11.00;;;7.10;;
49458;SDS011;35354;51.296;16.924;2023-06-01T02:34:17;10.63;;;6.43;;
49458;SDS011;35354;51.296;16.924;2023-06-01T02:36:43;11.20;;;7.07;;
49458;SDS011;35354;51.296;16.924;2023-06-01T02:39:09;10.63;;;6.82;;
49458;SDS011;35354;51.296;16.924;2023-06-01T02:41:34;9.40;;;6.93;;
49458;SDS011;35354;51.296;16.924;2023-06-01T02:43:59;9.90;;;6.88;;
49458;SDS011;35354;51.296;16.924;2023-06-01T02:46:25;12.02;;;6.53;;
49458;SDS011;35354;51.296;16.924;2023-06-01T02:48:50;10.68;;;6.65;;
49458;SDS011;35354;51.296;16.924;2023-06-01T02:51:16;10.63;;;6.68;;
49458;SDS011;35354;51.296;16.924;2023-06-01T02:53:43;13.65;;;7.55;;
49458;SDS011;35354;51.296;16.924;2023-06-01T02:56:09;11.98;;;6.38;;
49458;SDS011;35354;51.296;16.924;2023-06-01T02:58:35;11.70;;;7.07;;
49458;SDS011;35354;51.296;16.924;2023-06-01T03:01:01;14.73;;;6.40;;
49458;SDS011;35354;51.296;16.924;2023-06-01T03:03:27;8.98;;;6.32;;
49458;SDS011;35354;51.296;16.924;2023-06-01T03:05:53;8.90;;;6.20;;
49458;SDS011;35354;51.296;16.924;2023-06-01T03:08:19;9.25;;;6.97;;
49458;SDS011;35354;51.296;16.924;2023-06-01T03:10:44;12.65;;;7.28;;
49458;SDS011;35354;51.296;16.924;2023-06-01T03:13:10;11.23;;;6.50;;
49458;SDS011;35354;51.296;16.924;2023-06-01T03:15:36;11.00;;;6.70;;
49458;SDS011;35354;51.296;16.924;2023-06-01T03:18:04;10.15;;;6.78;;
49458;SDS011;35354;51.296;16.924;2023-06-01T03:20:33;10.05;;;6.55;;
49458;SDS011;35354;51.296;16.924;2023-06-01T03:22:59;11.73;;;7.22;;
49458;SDS011;35354;51.296;16.924;2023-06-01T03:25:25;9.77;;;6.43;;
49458;SDS011;35354;51.296;16.924;2023-06-01T03:27:51;9.70;;;6.78;;
49458;SDS011;35354;51.296;16.924;2023-06-01T03:30:16;11.77;;;7.10;;
49458;SDS011;35354;51.296;16.924;2023-06-01T03:32:42;13.65;;;6.78;;
49458;SDS011;35354;51.296;16.924;2023-06-01T03:35:09;11.32;;;6.75;;
49458;SDS011;35354;51.296;16.924;2023-06-01T03:37:36;10.15;;;6.78;;
49458;SDS011;35354;51.296;16.924;2023-06-01T03:40:03;9.02;;;7.10;;
49458;SDS011;35354;51.296;16.924;2023-06-01T03:42:40;10.40;;;6.95;;
49458;SDS011;35354;51.296;16.924;2023-06-01T03:45:07;12.35;;;6.25;;
49458;SDS011;35354;51.296;16.924;2023-06-01T03:47:33;9.57;;;6.65;;
49458;SDS011;35354;51.296;16.924;2023-06-01T03:49:59;9.80;;;7.18;;
49458;SDS011;35354;51.296;16.924;2023-06-01T03:52:26;15.18;;;7.22;;
49458;SDS011;35354;51.296;16.924;2023-06-01T03:54:52;9.50;;;6.90;;
49458;SDS011;35354;51.296;16.924;2023-06-01T03:57:17;11.43;;;6.93;;
49458;SDS011;35354;51.296;16.924;2023-06-01T03:59:43;11.88;;;7.70;;
49458;SDS011;35354;51.296;16.924;2023-06-01T04:02:08;12.20;;;7.57;;
49458;SDS011;35354;51.296;16.924;2023-06-01T04:04:34;14.98;;;7.32;;
49458;SDS011;35354;51.296;16.924;2023-06-01T04:07:00;12.32;;;7.05;;
49458;SDS011;35354;51.296;16.924;2023-06-01T04:09:28;13.35;;;7.28;;
49458;SDS011;35354;51.296;16.924;2023-06-01T04:11:54;11.27;;;6.75;;
49458;SDS011;35354;51.296;16.924;2023-06-01T04:14:20;9.80;;;6.85;;
49458;SDS011;35354;51.296;16.924;2023-06-01T04:16:45;13.35;;;7.20;;
49458;SDS011;35354;51.296;16.924;2023-06-01T04:19:11;14.02;;;7.43;;
49458;SDS011;35354;51.296;16.924;2023-06-01T04:21:36;10.07;;;6.88;;
49458;SDS011;35354;51.296;16.924;2023-06-01T04:24:02;11.43;;;7.35;;
49458;SDS011;35354;51.296;16.924;2023-06-01T04:26:27;8.70;;;6.43;;
49458;SDS011;35354;51.296;16.924;2023-06-01T04:28:52;8.57;;;6.60;;
49458;SDS011;35354;51.296;16.924;2023-06-01T04:31:21;11.80;;;6.93;;
49458;SDS011;35354;51.296;16.924;2023-06-01T04:33:47;9.70;;;6.95;;
49458;SDS011;35354;51.296;16.924;2023-06-01T04:36:19;14.02;;;6.60;;
49458;SDS011;35354;51.296;16.924;2023-06-01T04:38:47;10.00;;;5.97;;
49458;SDS011;35354;51.296;16.924;2023-06-01T04:41:19;8.48;;;6.82;;
49458;SDS011;35354;51.296;16.924;2023-06-01T04:43:46;7.65;;;5.90;;
49458;SDS011;35354;51.296;16.924;2023-06-01T04:46:17;12.73;;;6.22;;
49458;SDS011;35354;51.296;16.924;2023-06-01T04:48:43;9.85;;;6.28;;
49458;SDS011;35354;51.296;16.924;2023-06-01T04:51:10;8.02;;;5.95;;
49458;SDS011;35354;51.296;16.924;2023-06-01T04:53:35;11.90;;;7.28;;
49458;SDS011;35354;51.296;16.924;2023-06-01T04:56:00;7.90;;;5.95;;
49458;SDS011;35354;51.296;16.924;2023-06-01T04:58:26;7.55;;;5.20;;
49458;SDS011;35354;51.296;16.924;2023-06-01T05:00:51;9.93;;;6.10;;
49458;SDS011;35354;51.296;16.924;2023-06-01T05:03:17;6.75;;;5.72;;
49458;SDS011;35354;51.296;16.924;2023-06-01T05:05:43;7.63;;;5.95;;
49458;SDS011;35354;51.296;16.924;2023-06-01T05:08:09;10.63;;;6.45;;
49458;SDS011;35354;51.296;16.924;2023-06-01T05:10:35;7.35;;;5.55;;
49458;SDS011;35354;51.296;16.924;2023-06-01T05:13:00;10.73;;;6.18;;
49458;SDS011;35354;51.296;16.924;2023-06-01T05:15:25;8.95;;;5.70;;
49458;SDS011;35354;51.296;16.924;2023-06-01T05:17:53;9.20;;;5.85;;
49458;SDS011;35354;51.296;16.924;2023-06-01T05:20:18;13.43;;;5.70;;
49458;SDS011;35354;51.296;16.924;2023-06-01T05:22:43;7.35;;;5.45;;
49458;SDS011;35354;51.296;16.924;2023-06-01T05:25:09;12.20;;;5.72;;
49458;SDS011;35354;51.296;16.924;2023-06-01T05:27:34;10.52;;;5.55;;
49458;SDS011;35354;51.296;16.924;2023-06-01T05:30:00;8.77;;;5.35;;
49458;SDS011;35354;51.296;16.924;2023-06-01T05:32:25;8.00;;;5.28;;
49458;SDS011;35354;51.296;16.924;2023-06-01T05:34:51;6.90;;;5.00;;
49458;SDS011;35354;51.296;16.924;2023-06-01T05:37:16;7.95;;;5.22;;
49458;SDS011;35354;51.296;16.924;2023-06-01T05:39:42;8.00;;;5.10;;
49458;SDS011;35354;51.296;16.924;2023-06-01T05:42:07;9.75;;;5.50;;
49458;SDS011;35354;51.296;16.924;2023-06-01T05:44:32;6.82;;;5.10;;
49458;SDS011;35354;51.296;16.924;2023-06-01T05:46:58;8.95;;;4.97;;
49458;SDS011;35354;51.296;16.924;2023-06-01T05:49:23;6.70;;;5.38;;
49458;SDS011;35354;51.296;16.924;2023-06-01T05:51:48;8.30;;;4.75;;
49458;SDS011;35354;51.296;16.924;2023-06-01T05:54:14;7.72;;;5.13;;
49458;SDS011;35354;51.296;16.924;2023-06-01T05:56:39;7.65;;;5.07;;
49458;SDS011;35354;51.296;16.924;2023-06-01T05:59:09;7.32;;;4.53;;
49458;SDS011;35354;51.296;16.924;2023-06-01T06:01:35;5.72;;;5.15;;
49458;SDS011;35354;51.296;16.924;2023-06-01T06:04:01;5.50;;;5.00;;
49458;SDS011;35354;51.296;16.924;2023-06-01T06:06:26;5.78;;;4.85;;
49458;SDS011;35354;51.296;16.924;2023-06-01T06:08:52;7.28;;;5.20;;
49458;SDS011;35354;51.296;16.924;2023-06-01T06:11:17;4.72;;;4.25;;
49458;SDS011;35354;51.296;16.924;2023-06-01T06:13:43;7.05;;;4.35;;
49458;SDS011;35354;51.296;16.924;2023-06-01T06:16:08;4.93;;;4.22;;
49458;SDS011;35354;51.296;16.924;2023-06-01T06:18:33;6.63;;;4.57;;
49458;SDS011;35354;51.296;16.924;2023-06-01T06:20:59;6.53;;;4.50;;
49458;SDS011;35354;51.296;16.924;2023-06-01T06:23:25;5.28;;;4.07;;
49458;SDS011;35354;51.296;16.924;2023-06-01T06:25:52;6.68;;;4.65;;
49458;SDS011;35354;51.296;16.924;2023-06-01T06:28:17;7.53;;;4.70;;
49458;SDS011;35354;51.296;16.924;2023-06-01T06:30:43;5.78;;;4.55;;
49458;SDS011;35354;51.296;16.924;2023-06-01T06:33:08;5.47;;;4.80;;
49458;SDS011;35354;51.296;16.924;2023-06-01T06:35:33;5.70;;;4.30;;
49458;SDS011;35354;51.296;16.924;2023-06-01T06:37:59;4.85;;;4.43;;
49458;SDS011;35354;51.296;16.924;2023-06-01T06:40:24;9.25;;;4.30;;
49458;SDS011;35354;51.296;16.924;2023-06-01T06:42:49;4.70;;;4.25;;
49458;SDS011;35354;51.296;16.924;2023-06-01T06:45:16;4.47;;;4.03;;
49458;SDS011;35354;51.296;16.924;2023-06-01T06:47:41;5.88;;;4.25;;
49458;SDS011;35354;51.296;16.924;2023-06-01T06:50:10;4.78;;;4.28;;
49458;SDS011;35354;51.296;16.924;2023-06-01T06:52:36;5.05;;;4.35;;
49458;SDS011;35354;51.296;16.924;2023-06-01T06:55:02;4.22;;;3.83;;
49458;SDS011;35354;51.296;16.924;2023-06-01T06:57:27;4.70;;;4.30;;
49458;SDS011;35354;51.296;16.924;2023-06-01T06:59:52;4.47;;;4.18;;
49458;SDS011;35354;51.296;16.924;2023-06-01T07:02:18;4.20;;;3.80;;
49458;SDS011;35354;51.296;16.924;2023-06-01T07:04:44;4.38;;;4.03;;
49458;SDS011;35354;51.296;16.924;2023-06-01T07:07:09;5.50;;;4.88;;
49458;SDS011;35354;51.296;16.924;2023-06-01T07:09:35;4.53;;;4.13;;
49458;SDS011;35354;51.296;16.924;2023-06-01T07:12:00;6.07;;;4.10;;
49458;SDS011;35354;51.296;16.924;2023-06-01T07:14:25;6.50;;;3.80;;
49458;SDS011;35354;51.296;16.924;2023-06-01T07:16:51;7.75;;;4.22;;
49458;SDS011;35354;51.296;16.924;2023-06-01T07:19:16;5.15;;;3.50;;
49458;SDS011;35354;51.296;16.924;2023-06-01T07:21:41;5.13;;;3.70;;
49458;SDS011;35354;51.296;16.924;2023-06-01T07:24:07;3.90;;;3.45;;
49458;SDS011;35354;51.296;16.924;2023-06-01T07:26:33;4.65;;;3.60;;
49458;SDS011;35354;51.296;16.924;2023-06-01T07:28:58;4.75;;;3.97;;
49458;SDS011;35354;51.296;16.924;2023-06-01T07:31:24;3.83;;;3.53;;
49458;SDS011;35354;51.296;16.924;2023-06-01T07:33:52;5.40;;;4.28;;
49458;SDS011;35354;51.296;16.924;2023-06-01T07:36:18;4.13;;;3.72;;
49458;SDS011;35354;51.296;16.924;2023-06-01T07:38:45;4.28;;;3.78;;
49458;SDS011;35354;51.296;16.924;2023-06-01T07:41:10;3.70;;;3.40;;
49458;SDS011;35354;51.296;16.924;2023-06-01T07:43:36;5.13;;;3.88;;
49458;SDS011;35354;51.296;16.924;2023-06-01T07:46:03;4.07;;;3.70;;
49458;SDS011;35354;51.296;16.924;2023-06-01T07:48:28;3.85;;;3.55;;
49458;SDS011;35354;51.296;16.924;2023-06-01T07:50:54;4.85;;;3.85;;
49458;SDS011;35354;51.296;16.924;2023-06-01T07:53:20;4.72;;;3.80;;
49458;SDS011;35354;51.296;16.924;2023-06-01T07:55:45;4.82;;;3.65;;
49458;SDS011;35354;51.296;16.924;2023-06-01T07:58:13;3.58;;;3.22;;
49458;SDS011;35354;51.296;16.924;2023-06-01T08:00:39;3.63;;;3.33;;
49458;SDS011;35354;51.296;16.924;2023-06-01T08:03:04;3.33;;;3.13;;
49458;SDS011;35354;51.296;16.924;2023-06-01T08:05:31;3.58;;;3.28;;
49458;SDS011;35354;51.296;16.924;2023-06-01T08:07:59;3.92;;;3.15;;
49458;SDS011;35354;51.296;16.924;2023-06-01T08:10:24;3.33;;;2.83;;
49458;SDS011;35354;51.296;16.924;2023-06-01T08:12:50;5.70;;;3.13;;
49458;SDS011;35354;51.296;16.924;2023-06-01T08:15:15;5.32;;;3.20;;
49458;SDS011;35354;51.296;16.924;2023-06-01T08:17:41;3.28;;;2.97;;
49458;SDS011;35354;51.296;16.924;2023-06-01T08:20:06;3.72;;;2.90;;
49458;SDS011;35354;51.296;16.924;2023-06-01T08:22:38;7.40;;;3.00;;
49458;SDS011;35354;51.296;16.924;2023-06-01T08:25:03;4.80;;;2.70;;
49458;SDS011;35354;51.296;16.924;2023-06-01T08:27:30;2.78;;;2.45;;
49458;SDS011;35354;51.296;16.924;2023-06-01T08:29:56;3.47;;;2.60;;
49458;SDS011;35354;51.296;16.924;2023-06-01T08:32:21;3.97;;;3.10;;
49458;SDS011;35354;51.296;16.924;2023-06-01T08:34:46;5.57;;;2.92;;
49458;SDS011;35354;51.296;16.924;2023-06-01T08:37:15;6.57;;;2.60;;
49458;SDS011;35354;51.296;16.924;2023-06-01T08:39:40;3.88;;;2.85;;
49458;SDS011;35354;51.296;16.924;2023-06-01T08:44:46;3.70;;;2.40;;
49458;SDS011;35354;51.296;16.924;2023-06-01T08:47:12;7.60;;;2.85;;
49458;SDS011;35354;51.296;16.924;2023-06-01T08:49:38;6.93;;;2.85;;
49458;SDS011;35354;51.296;16.924;2023-06-01T08:52:13;6.18;;;3.13;;
49458;SDS011;35354;51.296;16.924;2023-06-01T08:54:43;3.40;;;2.45;;
49458;SDS011;35354;51.296;16.924;2023-06-01T08:57:09;2.42;;;2.22;;
49458;SDS011;35354;51.296;16.924;2023-06-01T08:59:36;2.78;;;2.55;;
49458;SDS011;35354;51.296;16.924;2023-06-01T09:02:01;7.47;;;2.78;;
49458;SDS011;35354;51.296;16.924;2023-06-01T09:04:27;8.23;;;2.80;;
49458;SDS011;35354;51.296;16.924;2023-06-01T09:06:55;5.22;;;2.78;;
49458;SDS011;35354;51.296;16.924;2023-06-01T09:09:21;6.65;;;2.70;;
49458;SDS011;35354;51.296;16.924;2023-06-01T09:11:46;3.75;;;2.40;;
49458;SDS011;35354;51.296;16.924;2023-06-01T09:14:21;5.32;;;2.92;;
49458;SDS011;35354;51.296;16.924;2023-06-01T09:16:49;2.97;;;2.17;;
49458;SDS011;35354;51.296;16.924;2023-06-01T09:19:15;7.72;;;3.08;;
49458;SDS011;35354;51.296;16.924;2023-06-01T09:21:54;4.72;;;2.70;;
49458;SDS011;35354;51.296;16.924;2023-06-01T09:24:21;3.30;;;2.33;;
49458;SDS011;35354;51.296;16.924;2023-06-01T09:26:49;6.10;;;2.50;;
49458;SDS011;35354;51.296;16.924;2023-06-01T09:29:16;4.22;;;2.70;;
49458;SDS011;35354;51.296;16.924;2023-06-01T09:31:45;3.17;;;2.28;;
49458;SDS011;35354;51.296;16.924;2023-06-01T09:34:12;5.75;;;2.72;;
49458;SDS011;35354;51.296;16.924;2023-06-01T09:36:40;2.88;;;2.50;;
49458;SDS011;35354;51.296;16.924;2023-06-01T09:39:07;5.57;;;2.95;;
49458;SDS011;35354;51.296;16.924;2023-06-01T09:41:44;4.55;;;2.85;;
49458;SDS011;35354;51.296;16.924;2023-06-01T09:44:11;2.90;;;2.60;;
49458;SDS011;35354;51.296;16.924;2023-06-01T09:46:46;3.47;;;2.83;;
49458;SDS011;35354;51.296;16.924;2023-06-01T09:49:18;4.43;;;2.63;;
49458;SDS011;35354;51.296;16.924;2023-06-01T09:54:32;6.22;;;2.85;;
49458;SDS011;35354;51.296;16.924;2023-06-01T09:57:04;4.10;;;2.45;;
49458;SDS011;35354;51.296;16.924;2023-06-01T09:59:37;2.60;;;2.20;;
49458;SDS011;35354;51.296;16.924;2023-06-01T10:02:13;4.47;;;2.72;;
49458;SDS011;35354;51.296;16.924;2023-06-01T10:04:41;2.60;;;2.40;;
49458;SDS011;35354;51.296;16.924;2023-06-01T10:07:10;3.88;;;2.95;;
49458;SDS011;35354;51.296;16.924;2023-06-01T10:09:38;3.10;;;2.53;;
49458;SDS011;35354;51.296;16.924;2023-06-01T10:12:06;3.30;;;2.53;;
49458;SDS011;35354;51.296;16.924;2023-06-01T10:14:32;3.50;;;2.17;;
49458;SDS011;35354;51.296;16.924;2023-06-01T10:16:58;3.75;;;3.13;;
49458;SDS011;35354;51.296;16.924;2023-06-01T10:19:25;5.38;;;2.40;;
49458;SDS011;35354;51.296;16.924;2023-06-01T10:21:51;5.35;;;2.85;;
49458;SDS011;35354;51.296;16.924;2023-06-01T10:24:18;5.20;;;2.72;;
49458;SDS011;35354;51.296;16.924;2023-06-01T10:29:31;3.40;;;2.70;;
49458;SDS011;35354;51.296;16.924;2023-06-01T10:31:57;4.85;;;2.95;;
49458;SDS011;35354;51.296;16.924;2023-06-01T10:34:39;3.97;;;2.70;;
49458;SDS011;35354;51.296;16.924;2023-06-01T10:37:12;3.10;;;2.83;;
49458;SDS011;35354;51.296;16.924;2023-06-01T10:39:39;5.13;;;2.78;;
49458;SDS011;35354;51.296;16.924;2023-06-01T10:52:33;3.85;;;3.30;;
49458;SDS011;35354;51.296;16.924;2023-06-01T10:57:45;4.13;;;3.00;;
49458;SDS011;35354;51.296;16.924;2023-06-01T11:00:17;4.88;;;3.03;;
49458;SDS011;35354;51.296;16.924;2023-06-01T11:03:03;3.05;;;2.85;;
49458;SDS011;35354;51.296;16.924;2023-06-01T11:13:24;3.60;;;3.30;;
49458;SDS011;35354;51.296;16.924;2023-06-01T11:18:51;5.07;;;3.80;;
49458;SDS011;35354;51.296;16.924;2023-06-01T11:23:51;5.63;;;3.53;;
49458;SDS011;35354;51.296;16.924;2023-06-01T11:26:18;4.85;;;3.60;;
49458;SDS011;35354;51.296;16.924;2023-06-01T11:28:46;4.82;;;3.85;;
49458;SDS011;35354;51.296;16.924;2023-06-01T11:31:13;4.18;;;3.72;;
49458;SDS011;35354;51.296;16.924;2023-06-01T11:33:49;4.60;;;4.00;;
49458;SDS011;35354;51.296;16.924;2023-06-01T11:36:22;5.35;;;4.07;;
49458;SDS011;35354;51.296;16.924;2023-06-01T11:38:52;4.93;;;4.10;;
49458;SDS011;35354;51.296;16.924;2023-06-01T11:41:19;5.90;;;3.85;;
49458;SDS011;35354;51.296;16.924;2023-06-01T11:43:54;7.78;;;4.60;;
49458;SDS011;35354;51.296;16.924;2023-06-01T11:46:21;7.15;;;4.50;;
49458;SDS011;35354;51.296;16.924;2023-06-01T11:49:03;6.63;;;4.90;;
49458;SDS011;35354;51.296;16.924;2023-06-01T11:51:35;4.82;;;4.32;;
49458;SDS011;35354;51.296;16.924;2023-06-01T11:54:02;8.40;;;4.00;;
49458;SDS011;35354;51.296;16.924;2023-06-01T11:56:32;4.32;;;3.92;;
49458;SDS011;35354;51.296;16.924;2023-06-01T11:59:00;4.10;;;3.60;;
49458;SDS011;35354;51.296;16.924;2023-06-01T12:01:27;4.60;;;3.88;;
49458;SDS011;35354;51.296;16.924;2023-06-01T12:03:53;4.38;;;3.38;;
49458;SDS011;35354;51.296;16.924;2023-06-01T12:06:22;4.43;;;3.47;;
49458;SDS011;35354;51.296;16.924;2023-06-01T12:08:49;6.95;;;3.92;;
49458;SDS011;35354;51.296;16.924;2023-06-01T12:11:20;3.95;;;3.47;;
49458;SDS011;35354;51.296;16.924;2023-06-01T12:13:54;6.35;;;4.10;;
49458;SDS011;35354;51.296;16.924;2023-06-01T12:16:20;3.60;;;3.17;;
49458;SDS011;35354;51.296;16.924;2023-06-01T12:18:46;5.70;;;3.90;;
49458;SDS011;35354;51.296;16.924;2023-06-01T12:21:12;4.28;;;3.50;;
49458;SDS011;35354;51.296;16.924;2023-06-01T12:23:38;4.90;;;3.50;;
49458;SDS011;35354;51.296;16.924;2023-06-01T12:26:03;6.53;;;3.42;;
49458;SDS011;35354;51.296;16.924;2023-06-01T12:28:29;7.03;;;3.30;;
49458;SDS011;35354;51.296;16.924;2023-06-01T12:31:12;5.63;;;3.97;;
49458;SDS011;35354;51.296;16.924;2023-06-01T12:33:39;4.28;;;3.28;;
49458;SDS011;35354;51.296;16.924;2023-06-01T12:36:06;3.58;;;3.28;;
49458;SDS011;35354;51.296;16.924;2023-06-01T12:38:36;4.43;;;3.33;;
49458;SDS011;35354;51.296;16.924;2023-06-01T12:41:09;4.45;;;3.75;;
49458;SDS011;35354;51.296;16.924;2023-06-01T12:43:37;5.18;;;3.58;;
49458;SDS011;35354;51.296;16.924;2023-06-01T12:46:04;3.47;;;3.17;;
49458;SDS011;35354;51.296;16.924;2023-06-01T12:48:33;5.43;;;3.28;;
49458;SDS011;35354;51.296;16.924;2023-06-01T12:51:00;8.30;;;3.65;;
49458;SDS011;35354;51.296;16.924;2023-06-01T12:53:27;5.40;;;3.47;;
49458;SDS011;35354;51.296;16.924;2023-06-01T12:55:55;4.00;;;3.60;;
49458;SDS011;35354;51.296;16.924;2023-06-01T12:58:21;4.22;;;3.45;;
49458;SDS011;35354;51.296;16.924;2023-06-01T13:00:47;3.78;;;3.40;;
49458;SDS011;35354;51.296;16.924;2023-06-01T13:03:13;4.40;;;3.55;;
49458;SDS011;35354;51.296;16.924;2023-06-01T13:05:41;4.28;;;3.88;;
49458;SDS011;35354;51.296;16.924;2023-06-01T13:08:07;4.35;;;3.75;;
49458;SDS011;35354;51.296;16.924;2023-06-01T13:10:33;5.00;;;3.53;;
49458;SDS011;35354;51.296;16.924;2023-06-01T13:12:58;4.65;;;3.50;;
49458;SDS011;35354;51.296;16.924;2023-06-01T13:15:23;3.60;;;3.30;;
49458;SDS011;35354;51.296;16.924;2023-06-01T13:17:49;6.03;;;3.92;;
49458;SDS011;35354;51.296;16.924;2023-06-01T13:20:14;7.05;;;3.70;;
49458;SDS011;35354;51.296;16.924;2023-06-01T13:22:42;6.03;;;3.65;;
49458;SDS011;35354;51.296;16.924;2023-06-01T13:25:07;3.60;;;3.30;;
49458;SDS011;35354;51.296;16.924;2023-06-01T13:27:33;5.20;;;3.58;;
49458;SDS011;35354;51.296;16.924;2023-06-01T13:29:59;4.97;;;3.83;;
49458;SDS011;35354;51.296;16.924;2023-06-01T13:32:26;6.70;;;3.80;;
49458;SDS011;35354;51.296;16.924;2023-06-01T13:34:52;7.30;;;4.18;;
49458;SDS011;35354;51.296;16.924;2023-06-01T13:37:17;4.45;;;3.83;;
49458;SDS011;35354;51.296;16.924;2023-06-01T13:39:43;5.50;;;3.75;;
49458;SDS011;35354;51.296;16.924;2023-06-01T13:42:08;5.03;;;3.70;;
49458;SDS011;35354;51.296;16.924;2023-06-01T13:44:33;3.97;;;3.55;;
49458;SDS011;35354;51.296;16.924;2023-06-01T13:46:59;5.18;;;3.50;;
49458;SDS011;35354;51.296;16.924;2023-06-01T13:49:24;6.45;;;4.05;;
49458;SDS011;35354;51.296;16.924;2023-06-01T13:51:49;4.25;;;3.65;;
49458;SDS011;35354;51.296;16.924;2023-06-01T13:54:15;8.90;;;4.15;;
49458;SDS011;35354;51.296;16.924;2023-06-01T13:56:41;5.00;;;4.05;;
49458;SDS011;35354;51.296;16.924;2023-06-01T13:59:06;4.30;;;3.55;;
49458;SDS011;35354;51.296;16.924;2023-06-01T14:01:32;7.93;;;4.22;;
49458;SDS011;35354;51.296;16.924;2023-06-01T14:03:57;8.73;;;4.50;;
49458;SDS011;35354;51.296;16.924;2023-06-01T14:06:22;7.05;;;4.00;;
49458;SDS011;35354;51.296;16.924;2023-06-01T14:08:48;5.72;;;4.22;;
49458;SDS011;35354;51.296;16.924;2023-06-01T14:11:14;5.28;;;3.92;;
49458;SDS011;35354;51.296;16.924;2023-06-01T14:13:39;7.07;;;3.50;;
49458;SDS011;35354;51.296;16.924;2023-06-01T14:16:04;5.97;;;3.92;;
49458;SDS011;35354;51.296;16.924;2023-06-01T14:18:30;5.85;;;3.90;;
49458;SDS011;35354;51.296;16.924;2023-06-01T14:20:56;6.55;;;4.00;;
49458;SDS011;35354;51.296;16.924;2023-06-01T14:23:21;4.57;;;4.18;;
49458;SDS011;35354;51.296;16.924;2023-06-01T14:25:47;4.63;;;3.80;;
49458;SDS011;35354;51.296;16.924;2023-06-01T14:28:12;5.03;;;3.85;;
49458;SDS011;35354;51.296;16.924;2023-06-01T14:30:38;6.43;;;4.40;;
49458;SDS011;35354;51.296;16.924;2023-06-01T14:33:04;6.88;;;3.80;;
49458;SDS011;35354;51.296;16.924;2023-06-01T14:35:29;5.53;;;4.45;;
49458;SDS011;35354;51.296;16.924;2023-06-01T14:37:55;8.82;;;4.20;;
49458;SDS011;35354;51.296;16.924;2023-06-01T14:40:20;6.95;;;4.22;;
49458;SDS011;35354;51.296;16.924;2023-06-01T14:42:46;4.22;;;3.83;;
49458;SDS011;35354;51.296;16.924;2023-06-01T14:45:12;6.35;;;3.90;;
49458;SDS011;35354;51.296;16.924;2023-06-01T14:47:37;4.00;;;3.60;;
49458;SDS011;35354;51.296;16.924;2023-06-01T14:50:06;5.90;;;4.03;;
49458;SDS011;35354;51.296;16.924;2023-06-01T14:52:32;4.60;;;3.97;;
49458;SDS011;35354;51.296;16.924;2023-06-01T14:54:57;4.88;;;4.30;;
49458;SDS011;35354;51.296;16.924;2023-06-01T14:57:23;7.75;;;4.68;;
49458;SDS011;35354;51.296;16.924;2023-06-01T14:59:48;5.28;;;4.72;;
49458;SDS011;35354;51.296;16.924;2023-06-01T15:02:13;6.28;;;4.80;;
49458;SDS011;35354;51.296;16.924;2023-06-01T15:04:39;5.43;;;4.93;;
49458;SDS011;35354;51.296;16.924;2023-06-01T15:07:04;5.93;;;4.85;;
49458;SDS011;35354;51.296;16.924;2023-06-01T15:09:30;5.20;;;4.35;;
49458;SDS011;35354;51.296;16.924;2023-06-01T15:11:55;6.70;;;4.75;;
49458;SDS011;35354;51.296;16.924;2023-06-01T15:14:21;5.72;;;5.13;;
49458;SDS011;35354;51.296;16.924;2023-06-01T15:16:47;6.63;;;4.90;;
49458;SDS011;35354;51.296;16.924;2023-06-01T15:19:12;7.05;;;4.50;;